createdAt,value
2018-04-08T00:00:54.622Z,99.90
2018-04-08T00:03:22.526Z,99.90
2018-04-08T00:05:50.463Z,99.90
2018-04-08T00:08:18.374Z,99.90
2018-04-08T00:10:46.312Z,99.90
2018-04-08T00:13:14.214Z,99.90
2018-04-08T00:15:42.152Z,99.90
2018-04-08T00:18:10.021Z,99.90
2018-04-08T00:20:37.947Z,99.90
2018-04-08T00:23:05.835Z,99.90
2018-04-08T00:25:33.762Z,99.90
2018-04-08T00:28:01.658Z,99.90
2018-04-08T00:30:29.595Z,99.90
2018-04-08T00:32:57.474Z,99.90
2018-04-08T00:35:25.411Z,99.90
2018-04-08T00:37:53.556Z,99.90
2018-04-08T00:40:21.492Z,99.90
2018-04-08T00:42:50.156Z,99.90
2018-04-08T00:45:18.127Z,99.90
2018-04-08T00:47:48.856Z,99.90
2018-04-08T00:50:17.015Z,99.90
2018-04-08T00:52:44.960Z,99.90
2018-04-08T00:55:12.906Z,99.90
2018-04-08T00:57:41.567Z,99.90
2018-04-08T01:00:09.524Z,99.90
2018-04-08T01:02:37.437Z,99.90
2018-04-08T01:05:05.451Z,99.90
2018-04-08T01:07:33.359Z,99.90
2018-04-08T01:10:01.308Z,99.90
2018-04-08T01:12:29.205Z,99.90
2018-04-08T01:14:57.930Z,99.90
2018-04-08T01:17:26.631Z,99.90
2018-04-08T01:19:54.575Z,99.90
2018-04-08T01:22:22.476Z,99.90
2018-04-08T01:24:50.419Z,99.90
2018-04-08T01:27:18.323Z,99.90
2018-04-08T01:29:46.206Z,99.90
2018-04-08T01:32:14.134Z,99.90
2018-04-08T01:34:42.020Z,99.90
2018-04-08T01:37:10.035Z,99.90
2018-04-08T01:39:38.698Z,99.90
2018-04-08T01:42:06.649Z,99.90
2018-04-08T01:44:34.543Z,99.90
2018-04-08T01:47:02.479Z,99.90
2018-04-08T01:49:30.355Z,99.90
2018-04-08T01:51:58.351Z,99.90
2018-04-08T01:54:26.246Z,99.90
2018-04-08T01:56:54.193Z,99.90
2018-04-08T01:59:22.074Z,99.90
2018-04-08T02:01:50.836Z,99.90
2018-04-08T02:04:18.772Z,99.90
2018-04-08T02:06:46.718Z,99.90
2018-04-08T02:09:14.610Z,99.90
2018-04-08T02:11:42.547Z,99.90
2018-04-08T02:14:11.196Z,99.90
2018-04-08T02:16:39.122Z,99.90
2018-04-08T02:19:07.010Z,99.90
2018-04-08T02:21:34.958Z,99.90
2018-04-08T02:24:02.835Z,99.90
2018-04-08T02:26:30.772Z,99.90
2018-04-08T02:28:59.421Z,99.90
2018-04-08T02:31:27.377Z,99.90
2018-04-08T02:33:55.253Z,99.90
2018-04-08T02:36:23.199Z,99.90
2018-04-08T02:38:51.090Z,99.90
2018-04-08T02:41:19.041Z,99.90
2018-04-08T02:43:46.928Z,99.90
2018-04-08T02:46:14.862Z,99.90
2018-04-08T02:48:42.748Z,99.90
2018-04-08T02:51:10.668Z,99.90
2018-04-08T02:53:38.552Z,99.90
2018-04-08T02:56:07.240Z,99.90
2018-04-08T02:58:36.156Z,99.90
2018-04-08T03:01:04.085Z,99.90
2018-04-08T03:03:31.963Z,99.90
2018-04-08T03:06:00.663Z,99.90
2018-04-08T03:08:28.543Z,99.90
2018-04-08T03:10:56.470Z,99.90
2018-04-08T03:16:27.016Z,99.90
2018-04-08T03:18:54.924Z,99.90
2018-04-08T03:21:22.867Z,99.90
2018-04-08T03:23:50.819Z,99.90
2018-04-08T03:26:18.713Z,99.90
2018-04-08T03:28:47.428Z,99.90
2018-04-08T03:31:15.390Z,99.90
2018-04-08T03:33:43.346Z,99.90
2018-04-08T03:36:12.002Z,99.90
2018-04-08T03:38:39.998Z,99.90
2018-04-08T03:41:08.664Z,99.90
2018-04-08T03:43:36.560Z,99.90
2018-04-08T03:46:05.286Z,99.90
2018-04-08T03:48:33.187Z,99.90
2018-04-08T03:51:01.115Z,99.90
2018-04-08T03:53:29.036Z,99.90
2018-04-08T03:55:56.977Z,99.90
2018-04-08T03:58:24.876Z,99.90
2018-04-08T04:00:52.893Z,99.90
2018-04-08T04:03:20.801Z,99.90
2018-04-08T04:05:48.813Z,99.90
2018-04-08T04:08:17.460Z,99.90
2018-04-08T04:10:45.468Z,99.90
2018-04-08T04:13:14.184Z,99.90
2018-04-08T04:15:42.201Z,99.90
2018-04-08T04:18:21.946Z,99.90
2018-04-08T04:21:01.734Z,99.90
2018-04-08T04:23:41.251Z,99.90
2018-04-08T04:26:20.947Z,99.90
2018-04-08T04:28:48.841Z,99.90
2018-04-08T04:31:16.846Z,99.90
2018-04-08T04:33:45.505Z,99.90
2018-04-08T04:36:13.476Z,99.90
2018-04-08T04:38:41.368Z,99.90
2018-04-08T04:41:14.007Z,99.90
2018-04-08T04:43:41.960Z,99.90
2018-04-08T04:46:09.866Z,99.90
2018-04-08T04:48:37.818Z,99.90
2018-04-08T04:51:05.810Z,99.90
2018-04-08T04:53:33.712Z,99.90
2018-04-08T04:56:04.897Z,99.90
2018-04-08T04:58:36.189Z,99.90
2018-04-08T05:01:05.790Z,99.90
2018-04-08T05:03:35.398Z,99.90
2018-04-08T05:06:05.065Z,99.90
2018-04-08T05:08:34.462Z,99.90
2018-04-08T05:11:03.036Z,99.90
2018-04-08T05:13:33.321Z,99.90
2018-04-08T05:16:02.635Z,99.90
2018-04-08T05:18:33.434Z,99.90
2018-04-08T05:21:01.952Z,99.90
2018-04-08T05:23:30.556Z,99.90
2018-04-08T05:25:59.471Z,99.90
2018-04-08T05:28:27.917Z,99.90
2018-04-08T05:30:57.122Z,99.90
2018-04-08T05:33:26.878Z,99.90
2018-04-08T05:35:55.554Z,99.90
2018-04-08T05:38:24.439Z,99.90
2018-04-08T05:40:53.158Z,99.90
2018-04-08T05:43:21.353Z,99.90
2018-04-08T05:45:50.176Z,99.90
2018-04-08T05:48:18.130Z,99.90
2018-04-08T05:50:46.031Z,99.90
2018-04-08T05:53:13.976Z,99.90
2018-04-08T05:55:43.726Z,99.90
2018-04-08T05:58:11.672Z,99.90
2018-04-08T06:00:41.860Z,99.90
2018-04-08T06:03:14.996Z,99.90
2018-04-08T06:05:43.664Z,99.90
2018-04-08T06:08:12.300Z,99.90
2018-04-08T06:10:40.709Z,99.90
2018-04-08T06:13:10.736Z,99.90
2018-04-08T06:15:38.922Z,99.90
2018-04-08T06:18:07.823Z,99.90
2018-04-08T06:20:36.596Z,99.90
2018-04-08T06:23:05.743Z,99.90
2018-04-08T06:25:35.780Z,99.90
2018-04-08T06:28:05.317Z,99.90
2018-04-08T06:30:35.138Z,99.90
2018-04-08T06:33:05.450Z,99.90
2018-04-08T06:35:35.801Z,99.90
2018-04-08T06:38:06.189Z,99.90
2018-04-08T06:40:35.990Z,99.90
2018-04-08T06:43:05.685Z,99.90
2018-04-08T06:45:37.502Z,99.90
2018-04-08T06:48:05.519Z,99.90
2018-04-08T06:50:33.782Z,99.90
2018-04-08T06:53:01.747Z,99.90
2018-04-08T06:55:29.645Z,99.90
2018-04-08T06:57:57.588Z,99.90
2018-04-08T07:00:25.483Z,99.90
2018-04-08T07:02:53.456Z,99.90
2018-04-08T07:05:22.340Z,99.90
2018-04-08T07:07:50.277Z,99.90
2018-04-08T07:10:18.182Z,99.90
2018-04-08T07:12:46.165Z,99.90
2018-04-08T07:15:14.131Z,96.70
2018-04-08T07:17:43.287Z,90.90
2018-04-08T07:20:15.493Z,69.70
2018-04-08T07:22:44.484Z,62.80
2018-04-08T07:25:14.283Z,57.00
2018-04-08T07:27:42.300Z,52.80
2018-04-08T07:30:11.016Z,52.60
2018-04-08T07:32:38.987Z,52.50
2018-04-08T07:35:06.886Z,52.40
2018-04-08T07:37:34.840Z,48.70
2018-04-08T07:40:02.740Z,45.50
2018-04-08T07:42:30.791Z,45.20
2018-04-08T07:44:58.706Z,40.60
2018-04-08T07:47:27.431Z,40.50
2018-04-08T07:49:55.467Z,40.50
2018-04-08T07:52:24.206Z,39.90
2018-04-08T07:54:52.129Z,39.90
2018-04-08T07:57:21.198Z,39.20
2018-04-08T07:59:49.104Z,39.10
2018-04-08T08:02:17.706Z,40.10
2018-04-08T08:04:45.613Z,41.60
2018-04-08T08:07:13.572Z,40.70
2018-04-08T08:09:41.464Z,40.50
2018-04-08T08:12:09.463Z,40.20
2018-04-08T08:14:37.402Z,40.40
2018-04-08T08:17:05.318Z,40.50
2018-04-08T08:19:33.293Z,40.80
2018-04-08T08:22:01.204Z,40.70
2018-04-08T08:24:29.160Z,40.90
2018-04-08T08:26:57.093Z,40.70
2018-04-08T08:29:25.071Z,39.70
2018-04-08T08:31:52.988Z,40.90
2018-04-08T08:34:20.965Z,40.60
2018-04-08T08:36:49.252Z,41.20
2018-04-08T08:39:18.116Z,39.70
2018-04-08T08:41:46.082Z,39.60
2018-04-08T08:44:14.073Z,41.80
2018-04-08T08:46:41.966Z,40.80
2018-04-08T08:49:11.160Z,41.70
2018-04-08T08:51:39.844Z,41.20
2018-04-08T08:54:09.215Z,42.00
2018-04-08T08:56:37.141Z,42.00
2018-04-08T08:59:05.120Z,43.30
2018-04-08T09:01:33.053Z,42.20
2018-04-08T09:04:00.959Z,42.90
2018-04-08T09:06:28.954Z,41.40
2018-04-08T09:08:57.059Z,42.70
2018-04-08T09:11:25.011Z,42.50
2018-04-08T09:13:52.925Z,41.30
2018-04-08T09:16:20.989Z,39.40
2018-04-08T09:18:49.015Z,38.90
2018-04-08T09:24:25.192Z,39.80
2018-04-08T09:26:53.176Z,38.60
2018-04-08T09:29:21.082Z,37.30
2018-04-08T09:31:49.794Z,37.20
2018-04-08T09:34:17.757Z,37.20
2018-04-08T09:36:45.829Z,36.10
2018-04-08T09:39:13.778Z,34.40
2018-04-08T09:41:42.618Z,33.60
2018-04-08T09:44:10.667Z,32.60
2018-04-08T09:46:38.860Z,32.60
2018-04-08T09:49:06.767Z,32.80
2018-04-08T09:51:35.487Z,32.60
2018-04-08T09:54:03.461Z,32.10
2018-04-08T09:56:31.478Z,32.00
2018-04-08T09:58:59.431Z,30.70
2018-04-08T10:04:34.108Z,32.00
2018-04-08T10:07:02.074Z,32.00
2018-04-08T10:09:29.977Z,31.30
2018-04-08T10:11:58.765Z,30.40
2018-04-08T10:14:26.714Z,30.30
2018-04-08T10:16:54.652Z,30.30
2018-04-08T10:19:23.267Z,30.30
2018-04-08T10:21:51.238Z,29.50
2018-04-08T10:24:20.716Z,29.40
2018-04-08T10:26:48.620Z,29.30
2018-04-08T10:29:16.601Z,30.60
2018-04-08T10:31:44.534Z,30.30
2018-04-08T10:34:12.546Z,30.10
2018-04-08T10:36:40.458Z,30.30
2018-04-08T10:39:08.417Z,29.90
2018-04-08T10:41:36.428Z,29.30
2018-04-08T10:44:05.194Z,29.00
2018-04-08T10:46:33.132Z,29.00
2018-04-08T10:49:02.066Z,29.20
2018-04-08T10:51:30.034Z,29.70
2018-04-08T10:53:57.997Z,29.70
2018-04-08T10:56:25.929Z,30.00
2018-04-08T10:58:53.908Z,29.00
2018-04-08T11:01:21.814Z,29.10
2018-04-08T11:03:49.777Z,29.20
2018-04-08T11:06:17.692Z,31.30
2018-04-08T11:08:46.417Z,30.30
2018-04-08T11:11:14.339Z,30.30
2018-04-08T11:13:42.296Z,31.70
2018-04-08T11:16:10.266Z,30.40
2018-04-08T11:18:38.227Z,30.40
2018-04-08T11:21:06.134Z,29.00
2018-04-08T11:23:34.095Z,30.20
2018-04-08T11:26:04.106Z,29.20
2018-04-08T11:28:32.108Z,29.10
2018-04-08T11:31:00.003Z,29.30
2018-04-08T11:33:27.960Z,28.40
2018-04-08T11:35:55.885Z,27.90
2018-04-08T11:38:24.642Z,29.00
2018-04-08T11:40:52.553Z,29.00
2018-04-08T11:43:20.489Z,27.90
2018-04-08T11:45:48.514Z,29.20
2018-04-08T11:48:16.476Z,28.30
2018-04-08T11:50:44.382Z,28.40
2018-04-08T11:53:12.337Z,28.00
2018-04-08T11:55:40.266Z,28.30
2018-04-08T11:58:09.058Z,29.50
2018-04-08T12:00:37.785Z,30.00
2018-04-08T12:03:05.791Z,29.90
2018-04-08T12:05:33.698Z,29.20
2018-04-08T12:08:02.367Z,29.70
2018-04-08T12:10:31.275Z,29.80
2018-04-08T12:12:59.932Z,28.80
2018-04-08T12:15:27.941Z,28.80
2018-04-08T12:17:55.842Z,29.00
2018-04-08T12:20:23.839Z,28.90
2018-04-08T12:22:51.792Z,28.70
2018-04-08T12:25:19.808Z,28.40
2018-04-08T12:27:48.537Z,27.90
2018-04-08T12:30:16.596Z,27.90
2018-04-08T12:32:44.552Z,28.80
2018-04-08T12:35:12.518Z,28.80
2018-04-08T12:37:40.479Z,29.70
2018-04-08T12:40:09.204Z,30.50
2018-04-08T12:42:37.113Z,30.40
2018-04-08T12:45:05.078Z,30.30
2018-04-08T12:47:33.057Z,29.80
2018-04-08T12:50:01.078Z,30.50
2018-04-08T12:52:28.979Z,30.30
2018-04-08T12:54:57.005Z,27.90
2018-04-08T12:57:25.002Z,28.00
2018-04-08T12:59:52.959Z,29.50
2018-04-08T13:02:20.934Z,29.50
2018-04-08T13:04:48.900Z,29.10
2018-04-08T13:07:16.840Z,28.60
2018-04-08T13:09:45.555Z,29.10
2018-04-08T13:12:13.524Z,29.00
2018-04-08T13:14:41.493Z,31.50
2018-04-08T13:17:09.417Z,30.60
2018-04-08T13:19:37.436Z,29.90
2018-04-08T13:22:05.377Z,30.00
2018-04-08T13:24:34.094Z,31.10
2018-04-08T13:27:01.999Z,31.10
2018-04-08T13:29:29.966Z,32.70
2018-04-08T13:31:57.858Z,31.60
2018-04-08T13:34:26.588Z,32.00
2018-04-08T13:36:54.507Z,32.20
2018-04-08T13:39:23.033Z,31.00
2018-04-08T13:41:51.508Z,30.90
2018-04-08T13:44:19.755Z,30.00
2018-04-08T13:46:47.798Z,31.00
2018-04-08T13:49:15.772Z,31.30
2018-04-08T13:51:43.691Z,30.30
2018-04-08T13:54:12.423Z,32.10
2018-04-08T13:56:40.319Z,32.00
2018-04-08T13:59:08.297Z,31.60
2018-04-08T14:01:37.060Z,32.10
2018-04-08T14:04:05.613Z,32.00
2018-04-08T14:06:33.589Z,31.10
2018-04-08T14:09:01.632Z,31.20
2018-04-08T14:11:30.312Z,29.80
2018-04-08T14:13:59.026Z,30.20
2018-04-08T14:16:26.907Z,30.20
2018-04-08T14:18:54.864Z,32.50
2018-04-08T14:21:22.791Z,32.00
2018-04-08T14:23:50.756Z,31.80
2018-04-08T14:26:18.668Z,31.70
2018-04-08T14:28:46.640Z,32.00
2018-04-08T14:31:14.549Z,31.90
2018-04-08T14:33:42.579Z,32.90
2018-04-08T14:36:10.535Z,32.10
2018-04-08T14:38:39.235Z,31.30
2018-04-08T14:41:07.199Z,31.20
2018-04-08T14:43:35.097Z,31.80
2018-04-08T14:46:03.085Z,32.90
2018-04-08T14:48:31.024Z,31.20
2018-04-08T14:50:59.296Z,32.30
2018-04-08T14:53:27.239Z,30.80
2018-04-08T14:55:55.954Z,31.50
2018-04-08T14:58:23.903Z,31.40
2018-04-08T15:00:52.609Z,32.10
2018-04-08T15:03:20.512Z,31.90
2018-04-08T15:08:12.875Z,32.70
2018-04-08T15:10:41.282Z,34.60
2018-04-08T15:13:09.311Z,33.90
2018-04-08T15:15:37.362Z,33.20
2018-04-08T15:18:05.336Z,32.60
2018-04-08T15:20:33.316Z,32.80
2018-04-08T15:23:05.580Z,31.90
2018-04-08T15:25:33.642Z,31.60
2018-04-08T15:28:01.628Z,33.10
2018-04-08T15:30:29.607Z,33.40
2018-04-08T15:32:57.611Z,32.10
2018-04-08T15:35:26.676Z,33.60
2018-04-08T15:37:55.146Z,32.50
2018-04-08T15:40:23.195Z,32.30
2018-04-08T15:42:51.155Z,31.70
2018-04-08T15:45:19.870Z,32.80
2018-04-08T15:47:47.900Z,32.80
2018-04-08T15:50:15.859Z,32.60
2018-04-08T15:52:43.797Z,31.60
2018-04-08T15:55:12.592Z,32.10
2018-04-08T15:57:40.489Z,32.00
2018-04-08T16:00:08.491Z,33.00
2018-04-08T16:02:36.419Z,33.40
2018-04-08T16:05:04.500Z,34.00
2018-04-08T16:07:32.461Z,33.60
2018-04-08T16:10:00.491Z,34.10
2018-04-08T16:12:28.446Z,35.10
2018-04-08T16:14:56.443Z,33.50
2018-04-08T16:17:24.421Z,33.10
2018-04-08T16:19:52.406Z,33.50
2018-04-08T16:22:20.334Z,34.50
2018-04-08T16:24:48.301Z,34.20
2018-04-08T16:27:18.514Z,34.50
2018-04-08T16:29:53.445Z,34.80
2018-04-08T16:32:21.497Z,34.80
2018-04-08T16:34:51.928Z,34.50
2018-04-08T16:37:28.698Z,35.00
2018-04-08T16:40:04.053Z,35.30
2018-04-08T16:42:35.387Z,35.20
2018-04-08T16:45:15.001Z,36.00
2018-04-08T16:50:27.694Z,35.90
2018-04-08T16:53:03.593Z,35.70
2018-04-08T16:55:32.740Z,35.80
2018-04-08T16:58:08.684Z,36.80
2018-04-08T17:00:43.027Z,36.70
2018-04-08T17:03:16.095Z,39.80
2018-04-08T17:05:55.407Z,37.90
2018-04-08T17:08:29.308Z,38.60
2018-04-08T17:11:05.104Z,38.70
2018-04-08T17:13:48.877Z,40.70
2018-04-08T17:16:22.804Z,40.10
2018-04-08T17:18:56.371Z,45.40
2018-04-08T17:21:32.629Z,49.70
2018-04-08T17:24:06.285Z,49.70
2018-04-08T17:26:41.790Z,53.10
2018-04-08T17:29:18.537Z,58.20
2018-04-08T17:31:52.586Z,95.20
2018-04-08T17:34:23.192Z,95.10
2018-04-08T17:36:53.554Z,99.90
2018-04-08T17:39:26.392Z,99.90
2018-04-08T17:41:54.456Z,99.90
2018-04-08T17:44:23.340Z,99.90
2018-04-08T17:46:52.182Z,99.90
2018-04-08T17:49:20.182Z,99.90
2018-04-08T17:51:48.188Z,99.90
2018-04-08T17:54:16.128Z,99.90
2018-04-08T17:56:44.091Z,99.90
2018-04-08T17:59:11.995Z,99.90
2018-04-08T18:01:39.972Z,99.90
2018-04-08T18:04:07.916Z,99.90
2018-04-08T18:06:35.871Z,99.90
2018-04-08T18:09:03.910Z,99.90
2018-04-08T18:11:31.893Z,99.90
2018-04-08T18:14:01.490Z,99.90
2018-04-08T18:16:29.466Z,99.90
2018-04-08T18:18:57.400Z,99.90
2018-04-08T18:21:25.396Z,99.90
2018-04-08T18:23:53.321Z,99.90
2018-04-08T18:26:21.509Z,99.90
2018-04-08T18:28:49.419Z,99.90
2018-04-08T18:31:17.394Z,99.90
2018-04-08T18:33:45.319Z,99.90
2018-04-08T18:36:13.405Z,99.90
2018-04-08T18:38:42.115Z,99.90
2018-04-08T18:41:10.222Z,99.90
2018-04-08T18:43:38.942Z,99.90
2018-04-08T18:46:06.912Z,99.90
2018-04-08T18:48:34.864Z,99.90
2018-04-08T18:51:02.868Z,99.90
2018-04-08T18:53:31.606Z,99.90
2018-04-08T18:55:59.589Z,99.90
2018-04-08T18:58:27.492Z,99.90
2018-04-08T19:00:56.195Z,99.90
2018-04-08T19:03:24.926Z,99.90
2018-04-08T19:05:53.132Z,99.90
2018-04-08T19:08:21.092Z,99.90
2018-04-08T19:10:49.095Z,99.90
2018-04-08T19:13:17.900Z,99.90
2018-04-08T19:15:45.820Z,99.90
2018-04-08T19:18:13.797Z,99.90
2018-04-08T19:20:45.527Z,99.90
2018-04-08T19:23:13.538Z,99.90
2018-04-08T19:25:42.225Z,99.90
2018-04-08T19:28:10.231Z,99.90
2018-04-08T19:30:38.172Z,99.90
2018-04-08T19:33:06.905Z,99.90
2018-04-08T19:35:36.415Z,99.90
2018-04-08T19:38:04.331Z,99.90
2018-04-08T19:40:32.297Z,99.90
2018-04-08T19:43:00.217Z,99.90
2018-04-08T19:45:28.260Z,99.90
2018-04-08T19:47:56.946Z,99.90
2018-04-08T19:50:25.978Z,99.90
2018-04-08T19:52:53.880Z,99.90
2018-04-08T19:55:22.288Z,99.90
2018-04-08T19:57:50.985Z,99.90
2018-04-08T20:00:19.049Z,99.90
2018-04-08T20:02:47.776Z,99.90
2018-04-08T20:05:15.724Z,99.90
2018-04-08T20:07:43.625Z,99.90
2018-04-08T20:10:11.604Z,99.90
2018-04-08T20:12:39.574Z,99.90
2018-04-08T20:15:08.709Z,99.90
2018-04-08T20:17:38.908Z,99.90
2018-04-08T20:20:11.352Z,99.90
2018-04-08T20:22:40.241Z,99.90
2018-04-08T20:25:08.228Z,99.90
2018-04-08T20:27:36.639Z,99.90
2018-04-08T20:30:05.590Z,99.90
2018-04-08T20:32:35.253Z,99.90
2018-04-08T20:35:05.694Z,99.90
2018-04-08T20:37:33.702Z,99.90
2018-04-08T20:40:04.288Z,99.90
2018-04-08T20:42:34.899Z,99.90
2018-04-08T20:45:03.252Z,99.90
2018-04-08T20:47:31.214Z,99.90
2018-04-08T20:50:00.011Z,99.90
2018-04-08T20:52:31.423Z,99.90
2018-04-08T20:55:00.483Z,99.90
2018-04-08T20:57:28.446Z,99.90
2018-04-08T20:59:56.550Z,99.90
2018-04-08T21:02:24.641Z,99.90
2018-04-08T21:04:52.548Z,99.90
2018-04-08T21:07:20.514Z,99.90
2018-04-08T21:09:51.544Z,99.90
2018-04-08T21:12:20.147Z,99.90
2018-04-08T21:14:48.043Z,99.90
2018-04-08T21:17:17.243Z,99.90
2018-04-08T21:19:45.211Z,99.90
2018-04-08T21:22:13.287Z,99.90
2018-04-08T21:24:42.043Z,99.90
2018-04-08T21:27:10.048Z,99.90
2018-04-08T21:29:42.223Z,99.90
2018-04-08T21:32:11.156Z,99.90
2018-04-08T21:34:39.118Z,99.90
2018-04-08T21:37:07.088Z,99.90
2018-04-08T21:39:35.021Z,99.90
2018-04-08T21:42:07.310Z,99.90
2018-04-08T21:44:37.613Z,99.90
2018-04-08T21:47:11.646Z,99.90
2018-04-08T21:49:43.710Z,99.90
2018-04-08T21:52:11.806Z,99.90
2018-04-08T21:54:39.720Z,99.90
2018-04-08T21:57:07.790Z,99.90
2018-04-08T21:59:35.695Z,99.90
2018-04-08T22:02:04.456Z,99.90
2018-04-08T22:04:32.372Z,99.90
2018-04-08T22:07:00.364Z,99.90
2018-04-08T22:09:28.277Z,99.90
2018-04-08T22:11:56.243Z,99.90
2018-04-08T22:14:24.929Z,99.90
2018-04-08T22:16:52.906Z,99.90
2018-04-08T22:19:21.578Z,99.90
2018-04-08T22:21:49.540Z,99.90
2018-04-08T22:24:19.124Z,99.90
2018-04-08T22:26:48.144Z,99.90
2018-04-08T22:29:18.616Z,99.90
2018-04-08T22:31:46.604Z,99.90
2018-04-08T22:34:14.534Z,99.90
2018-04-08T22:36:44.560Z,99.90
2018-04-08T22:39:14.035Z,99.90
2018-04-08T22:41:42.939Z,99.90
2018-04-08T22:44:11.628Z,99.90
2018-04-08T22:46:41.159Z,99.90
2018-04-08T22:49:09.687Z,99.90
2018-04-08T22:51:38.200Z,99.90
2018-04-08T22:54:06.538Z,99.90
2018-04-08T22:56:34.956Z,99.90
2018-04-08T22:59:05.257Z,99.90
2018-04-08T23:01:34.253Z,99.90
2018-04-08T23:04:04.229Z,99.90
2018-04-08T23:06:33.014Z,99.90
2018-04-08T23:09:03.366Z,99.90
2018-04-08T23:11:31.824Z,99.90
2018-04-08T23:13:59.772Z,99.90
2018-04-08T23:16:30.082Z,99.90
2018-04-08T23:18:58.968Z,99.90
2018-04-08T23:21:27.473Z,99.90
2018-04-08T23:23:56.457Z,99.90
2018-04-08T23:26:25.564Z,99.90
2018-04-08T23:28:54.236Z,99.90
2018-04-08T23:31:22.728Z,99.90
2018-04-08T23:33:51.826Z,99.90
2018-04-08T23:36:20.300Z,99.90
2018-04-08T23:38:49.909Z,99.90
2018-04-08T23:41:18.399Z,99.90
2018-04-08T23:43:48.110Z,99.90
2018-04-08T23:46:17.605Z,99.90
2018-04-08T23:48:46.202Z,99.90
2018-04-08T23:51:14.759Z,99.90
2018-04-08T23:53:42.672Z,99.90
2018-04-08T23:56:15.035Z,99.90
2018-04-08T23:58:45.898Z,99.90
